Flight Track Log - Related Links

Times and Time Zones

All times are in EDT time to prevent confusion due to time zone crossing. See the CTL18 flight status page for this flight to view local times or setup timezone preferences in your user account.

Time Position Orientation Groundspeed Altitude Reporting Facility
EDT Latitude Longitude Course Direction KTS MPH feet Rate Location/Type
Wed 09:34:20 PM 42.2217 -83.5497 226° Southwest 113 130 1,000  Level Cleveland Center
Wed 09:35:15 PM 42.1981 -83.5822 226° Southwest 133 153 1,800 783 Climbing Cleveland Center
Wed 09:36:15 PM 42.1681 -83.6144 219° Southwest 144 166 2,500 545 Climbing Cleveland Center
Wed 09:37:16 PM 42.1264 -83.6097 175° South 163 188 2,900 259 Climbing Cleveland Center
Wed 09:38:11 PM 42.0806 -83.6075 178° South 171 197 3,000  Climbing Cleveland Center
Wed 09:39:11 PM 42.0439 -83.5778 149° Southeast 167 192 2,900 -50 Descending Cleveland Center
Wed 09:40:12 PM 42.0267 -83.5156 110° East 171 197 2,900 49 Level Cleveland Center
Wed 09:41:13 PM 42.0094 -83.4561 111° Southeast 173 199 3,000 198 Climbing Cleveland Center
Wed 09:42:13 PM 41.9922 -83.3967 111° Southeast 164 189 3,300 397 Climbing Cleveland Center
Wed 09:43:14 PM 41.9728 -83.3397 115° Southeast 163 188 3,800 422 Climbing Cleveland Center
Wed 09:44:21 PM 41.9553 -83.2833 113° Southeast 158 182 4,200 425 Climbing Cleveland Center
Wed 09:45:21 PM 41.9400 -83.2211 108° East 161 185 4,700 397 Climbing Cleveland Center
Wed 09:46:22 PM 41.9225 -83.1647 113° Southeast 160 184 5,000 149 Climbing Cleveland Center
Wed 09:47:22 PM 41.9050 -83.1053 112° Southeast 172 198 5,000  Level Cleveland Center
Wed 09:48:17 PM 41.8917 -83.0544 109° East 170 196 5,000  Level Cleveland Center
Wed 09:49:24 PM 41.8722 -82.9925 113° Southeast 169 194 5,000 61 Level Cleveland Center
Wed 09:49:55 PM 41.8603 -82.9586 115° Southeast 169 194 5,100 76 Climbing Cleveland Center
Wed 09:50:43 PM 41.8489 -82.9108 108° East 172 198 5,100  Level Cleveland Center
Wed 09:51:44 PM 41.8333 -82.8489 109° East 175 201 5,100  Level Cleveland Center
Wed 09:52:38 PM 41.8156 -82.7925 113° Southeast 176 203 5,100  Level Cleveland Center
Wed 09:53:39 PM 41.8003 -82.7308 108° East 175 201 5,100  Level Cleveland Center
Wed 09:54:46 PM 41.7806 -82.6661 112° Southeast 175 201 5,100 -47 Level Cleveland Center
Wed 09:55:46 PM 41.7586 -82.6014 114° Southeast 177 204 5,000 -157 Descending Cleveland Center
Wed 09:56:41 PM 41.7431 -82.5450 110° East 183 211 4,800 -365 Descending Cleveland Center
Wed 09:57:41 PM 41.7192 -82.4775 115° Southeast 186 214 4,300 -496 Descending Cleveland Center
Wed 09:58:42 PM 41.6972 -82.4131 114° Southeast 189 217 3,800 -436 Descending Cleveland Center
Wed 09:59:31 PM 41.6856 -82.3681 109° East 185 213 3,500 -330 Descending Cleveland Center
Wed 10:00:31 PM 41.6697 -82.3011 108° East 181 208 3,200 -198 Descending Cleveland Center
Wed 10:01:32 PM 41.6519 -82.2422 112° Southeast 173 199 3,100 -47 Descending Cleveland Center
Wed 10:02:38 PM 41.6319 -82.1750 112° Southeast 166 191 3,100  Level Cleveland Center
Wed 10:03:33 PM 41.6222 -82.1219 104° East 164 189 3,100 -148 Level Cleveland Center
Wed 10:04:40 PM 41.6044 -82.0578 110° East 167 192 2,800 -236 Descending Cleveland Center
Wed 10:05:40 PM 41.5886 -81.9989 110° East 169 194 2,600 -189 Descending Cleveland Center
Wed 10:06:47 PM 41.5706 -81.9292 109° East 171 197 2,400 -224 Descending Cleveland Center
Wed 10:07:54 PM 41.5506 -81.8650 113° Southeast 169 194 2,100 -236 Descending Cleveland Center
Wed 10:08:54 PM 41.5303 -81.8147 118° Southeast 160 184 1,900 -261 Descending Cleveland Center
Wed 10:09:49 PM 41.5161 -81.7644 111° Southeast 152 175 1,600 -365 Descending Cleveland Center
Wed 10:10:49 PM 41.5061 -81.7172 106° East 111 128 1,200 -400 Descending Cleveland Center
Wed 10:12:00 PM 41.5175 -81.6833 108° East  Level Estimated
Wed 10:19:00 PM 41.5175 -81.6833 108° East  Level Estimated

Login

Don't have an account? Register now (free) for customized features, flight alerts, and more!